Time;durP1;ratioP1;P1;durP2;ratioP2;P2;SDS_P1;SDS_P2;PMS_P1;PMS_P2;Temp;Humidity;BMP_temperature;BMP_pressure;BME280_temperature;BME280_humidity;BME280_pressure;Samples;Min_cycle;Max_cycle;Signal;HPM_P1;HPM_P2
2022/01/11 00:01:45;;;;;;;132.65;106.88;;;-0.30;99.90;;;;;;4931667;28;20414;-83
2022/01/11 00:04:12;;;;;;;130.98;103.97;;;-0.40;99.90;;;;;;4930977;29;20386;-82
2022/01/11 00:06:52;;;;;;;133.43;106.60;;;-0.30;99.90;;;;;;4930421;29;20407;-83
2022/01/11 00:09:30;;;;;;;132.57;106.72;;;-0.40;99.90;;;;;;4930936;29;20587;-83
2022/01/11 00:11:55;;;;;;;132.68;107.25;;;-0.40;99.90;;;;;;4929941;28;20499;-82
2022/01/11 00:14:21;;;;;;;135.43;109.43;;;-0.50;99.90;;;;;;4933112;29;20890;-82
2022/01/11 00:16:47;;;;;;;131.50;107.22;;;-0.50;99.90;;;;;;4954806;28;20395;-83
2022/01/11 00:19:14;;;;;;;135.75;108.18;;;-0.60;99.90;;;;;;4945709;29;20390;-83
2022/01/11 00:21:45;;;;;;;137.50;110.40;;;-0.60;99.90;;;;;;4934300;29;20481;-84
2022/01/11 00:24:29;;;;;;;139.15;110.22;;;-0.60;99.90;;;;;;4919092;29;20421;-82
2022/01/11 00:27:01;;;;;;;134.98;109.72;;;-0.60;99.90;;;;;;4934048;29;20398;-83
2022/01/11 00:29:28;;;;;;;143.60;111.55;;;-0.70;99.90;;;;;;4918289;29;20413;-84
2022/01/11 00:31:57;;;;;;;141.75;111.75;;;-0.70;99.90;;;;;;4929368;29;21209;-85
2022/01/11 00:34:24;;;;;;;143.82;114.55;;;-0.70;99.90;;;;;;4952760;29;20882;-82
2022/01/11 00:36:50;;;;;;;142.40;112.35;;;-0.80;99.90;;;;;;4952430;28;20802;-83
2022/01/11 00:39:15;;;;;;;139.15;112.20;;;-0.80;99.90;;;;;;4952580;29;20499;-82
2022/01/11 00:41:43;;;;;;;144.83;115.43;;;-0.90;99.90;;;;;;4954693;29;20455;-83
2022/01/11 00:44:09;;;;;;;144.35;115.57;;;-0.90;99.90;;;;;;4954282;29;20388;-82
2022/01/11 00:46:35;;;;;;;140.13;112.10;;;-0.90;99.90;;;;;;4958384;29;20403;-82
2022/01/11 00:49:01;;;;;;;148.82;116.63;;;-0.90;99.90;;;;;;4953415;28;20764;-83
2022/01/11 00:51:27;;;;;;;154.13;119.28;;;-1.00;99.90;;;;;;4952947;29;20844;-84
2022/01/11 00:53:53;;;;;;;147.68;115.97;;;-1.00;99.90;;;;;;4952794;29;20384;-83
2022/01/11 00:56:19;;;;;;;150.15;115.30;;;-1.00;99.90;;;;;;4954146;29;20388;-81
2022/01/11 00:58:46;;;;;;;155.05;119.65;;;-1.00;99.90;;;;;;4952855;29;20759;-84
2022/01/11 01:01:11;;;;;;;150.87;116.97;;;-1.00;99.90;;;;;;4952337;28;20419;-83
2022/01/11 01:03:37;;;;;;;151.30;119.80;;;-1.00;99.90;;;;;;4952796;29;20448;-82
2022/01/11 01:06:03;;;;;;;145.10;116.03;;;-1.00;99.90;;;;;;4938641;29;20398;-84
2022/01/11 01:08:29;;;;;;;152.25;118.68;;;-1.10;99.90;;;;;;4933178;29;20414;-83
2022/01/11 01:10:55;;;;;;;156.80;120.45;;;-1.10;99.90;;;;;;4957602;28;21177;-82
2022/01/11 01:13:24;;;;;;;150.13;119.00;;;-1.10;99.90;;;;;;4952544;29;20384;-83
2022/01/11 01:15:53;;;;;;;154.97;120.07;;;-1.20;99.90;;;;;;4951969;29;20400;-83
2022/01/11 01:18:23;;;;;;;153.13;120.43;;;-1.20;99.90;;;;;;4953917;28;20389;-83
2022/01/11 01:20:53;;;;;;;154.57;122.15;;;-1.30;99.90;;;;;;4953251;29;20396;-84
2022/01/11 01:23:20;;;;;;;161.50;125.38;;;-1.30;99.90;;;;;;4941826;29;20473;-83
2022/01/11 01:25:47;;;;;;;153.32;120.60;;;-1.30;99.90;;;;;;4931293;29;21170;-83
2022/01/11 01:28:14;;;;;;;154.80;118.65;;;-1.30;99.90;;;;;;4942604;29;20400;-83
2022/01/11 01:30:41;;;;;;;160.82;125.03;;;-1.30;99.90;;;;;;4915098;29;20384;-83
2022/01/11 01:33:07;;;;;;;162.88;126.85;;;-1.30;99.90;;;;;;4926370;29;20385;-83
2022/01/11 01:35:39;;;;;;;159.25;127.10;;;-1.30;99.90;;;;;;4932679;29;20401;-82
2022/01/11 01:38:06;;;;;;;172.87;134.77;;;-1.40;99.90;;;;;;4934086;29;20398;-83
2022/01/11 01:40:38;;;;;;;174.52;133.50;;;-1.40;99.90;;;;;;4933063;29;20398;-82
2022/01/11 01:43:05;;;;;;;176.73;134.88;;;-1.50;99.90;;;;;;4934786;29;20835;-82
2022/01/11 01:45:31;;;;;;;176.13;134.63;;;-1.50;99.90;;;;;;4931989;29;20422;-82
2022/01/11 01:47:58;;;;;;;178.13;138.32;;;-1.40;99.90;;;;;;4947633;29;20394;-83
2022/01/11 01:50:26;;;;;;;185.10;142.50;;;-1.50;99.90;;;;;;4933868;29;20829;-82
2022/01/11 01:52:53;;;;;;;180.02;137.82;;;-1.50;99.90;;;;;;4933236;29;20426;-82
2022/01/11 01:55:19;;;;;;;180.33;141.60;;;-1.50;99.90;;;;;;4933154;29;20519;-82
2022/01/11 01:57:44;;;;;;;174.40;135.67;;;-1.40;99.90;;;;;;4933278;29;20489;-83
2022/01/11 02:00:12;;;;;;;179.90;140.83;;;-1.40;99.90;;;;;;4932816;28;20548;-83
2022/01/11 02:02:41;;;;;;;176.45;138.05;;;-1.20;99.90;;;;;;4931310;29;20496;-82
2022/01/11 02:05:07;;;;;;;178.47;136.73;;;-1.20;99.90;;;;;;4929222;29;20475;-82
2022/01/11 02:07:34;;;;;;;179.23;139.18;;;-1.10;99.90;;;;;;4930083;29;20514;-82
2022/01/11 02:10:01;;;;;;;173.77;135.82;;;-0.90;99.90;;;;;;4930694;29;20924;-83
2022/01/11 02:12:28;;;;;;;178.27;137.18;;;-0.90;99.90;;;;;;4931931;29;20393;-83
2022/01/11 02:14:54;;;;;;;174.25;135.18;;;-0.80;99.90;;;;;;4928034;29;20435;-83
2022/01/11 02:17:19;;;;;;;177.50;137.40;;;-0.80;99.90;;;;;;4933086;29;20477;-82
2022/01/11 02:19:45;;;;;;;178.27;137.10;;;-0.70;99.90;;;;;;4928622;29;20427;-82
2022/01/11 02:22:11;;;;;;;183.00;138.97;;;-0.60;99.90;;;;;;4914015;29;20379;-83
2022/01/11 02:24:37;;;;;;;175.95;136.55;;;-0.70;99.90;;;;;;4913847;29;20466;-82
2022/01/11 02:27:02;;;;;;;178.77;136.87;;;-0.70;99.90;;;;;;4916598;29;20427;-82
2022/01/11 02:29:28;;;;;;;175.73;135.10;;;-0.70;99.90;;;;;;4949127;29;20417;-82
2022/01/11 02:31:54;;;;;;;174.37;134.23;;;-0.70;99.90;;;;;;4934586;29;20765;-83
2022/01/11 02:34:20;;;;;;;170.43;131.37;;;-0.70;99.90;;;;;;4932671;29;20417;-82
2022/01/11 02:36:45;;;;;;;170.03;129.67;;;-0.70;99.90;;;;;;4932080;29;20430;-83
2022/01/11 02:39:11;;;;;;;177.70;133.23;;;-0.70;99.90;;;;;;4933223;29;20420;-82
2022/01/11 02:41:52;;;;;;;176.13;132.83;;;-0.70;99.90;;;;;;4931956;29;20453;-81
2022/01/11 02:44:17;;;;;;;175.02;132.90;;;-0.70;99.90;;;;;;4948337;29;20390;-81
2022/01/11 02:46:43;;;;;;;178.63;129.77;;;-0.70;99.90;;;;;;4948090;28;20394;-82
2022/01/11 02:49:09;;;;;;;172.48;128.18;;;-0.70;99.90;;;;;;4932993;29;20983;-82
2022/01/11 02:51:35;;;;;;;172.17;127.83;;;-0.80;99.90;;;;;;4933121;29;20465;-82
2022/01/11 02:54:01;;;;;;;168.30;125.80;;;-0.70;99.90;;;;;;4931242;29;20389;-82
2022/01/11 02:56:27;;;;;;;175.13;128.30;;;-0.60;99.90;;;;;;4947375;29;20466;-83
2022/01/11 02:58:52;;;;;;;173.38;128.23;;;-0.60;99.90;;;;;;4947301;29;20740;-82
2022/01/11 03:01:18;;;;;;;178.43;127.03;;;-0.70;99.90;;;;;;4931319;29;20513;-81
2022/01/11 03:03:45;;;;;;;175.02;127.50;;;-0.80;99.90;;;;;;4932505;29;20401;-81
2022/01/11 03:06:11;;;;;;;178.70;127.60;;;-0.80;99.90;;;;;;4933865;29;20453;-82
2022/01/11 03:08:42;;;;;;;173.68;125.22;;;-0.80;99.90;;;;;;4927783;29;20416;-83
2022/01/11 03:11:09;;;;;;;172.77;125.53;;;-0.80;99.90;;;;;;4913299;29;20404;-83
2022/01/11 03:13:38;;;;;;;174.13;124.03;;;-0.80;99.90;;;;;;4928097;29;20391;-84
2022/01/11 03:16:04;;;;;;;172.43;121.82;;;-0.90;99.90;;;;;;4927682;29;20398;-81
2022/01/11 03:18:29;;;;;;;170.07;123.83;;;-0.90;99.90;;;;;;4912258;29;20388;-83
2022/01/11 03:20:56;;;;;;;171.98;123.63;;;-0.90;99.90;;;;;;4927612;29;20933;-83
2022/01/11 03:23:22;;;;;;;170.95;122.25;;;-0.90;99.90;;;;;;4911862;29;20414;-82
2022/01/11 03:25:51;;;;;;;170.95;122.30;;;-1.00;99.90;;;;;;4913288;29;20874;-82
2022/01/11 03:28:17;;;;;;;168.50;119.97;;;-1.00;99.90;;;;;;4911783;29;20757;-82
2022/01/11 03:30:43;;;;;;;169.20;121.82;;;-1.00;99.90;;;;;;4912031;29;20384;-82
2022/01/11 03:33:11;;;;;;;173.40;121.23;;;-1.00;99.90;;;;;;4913597;29;20467;-83
2022/01/11 03:35:39;;;;;;;170.20;120.85;;;-1.00;99.90;;;;;;4911909;29;20462;-81
2022/01/11 03:38:06;;;;;;;169.33;122.13;;;-1.00;99.90;;;;;;4911480;29;20786;-82
2022/01/11 03:40:32;;;;;;;170.43;119.22;;;-1.00;99.90;;;;;;4910671;29;20392;-82
2022/01/11 03:42:58;;;;;;;167.00;119.45;;;-1.00;99.90;;;;;;4912908;29;20478;-81
2022/01/11 03:45:26;;;;;;;167.73;120.22;;;-0.90;99.90;;;;;;4912324;29;20996;-82
2022/01/11 03:47:54;;;;;;;168.07;118.43;;;-0.90;99.90;;;;;;4911918;29;20470;-81
2022/01/11 03:50:20;;;;;;;162.48;115.82;;;-0.80;99.90;;;;;;4911763;29;20423;-82
2022/01/11 03:52:46;;;;;;;167.40;117.38;;;-0.80;99.90;;;;;;4913553;29;20398;-82
2022/01/11 03:55:21;;;;;;;166.20;117.22;;;-0.70;99.90;;;;;;4927707;29;20479;-82
2022/01/11 03:57:48;;;;;;;168.52;117.32;;;-0.90;99.90;;;;;;4913717;29;20392;-82
2022/01/11 04:00:16;;;;;;;171.88;119.38;;;-1.00;99.90;;;;;;4911517;29;20399;-82
2022/01/11 04:02:42;;;;;;;175.90;120.07;;;-1.00;99.90;;;;;;4911747;29;20398;-82
2022/01/11 04:05:11;;;;;;;172.80;119.10;;;-1.10;99.90;;;;;;4917917;29;20481;-82
2022/01/11 04:07:37;;;;;;;172.15;119.88;;;-1.00;99.90;;;;;;4931215;29;20417;-83
2022/01/11 04:10:03;;;;;;;179.88;125.00;;;-0.90;99.90;;;;;;4929248;29;20456;-81
2022/01/11 04:12:29;;;;;;;173.60;120.22;;;-0.80;99.90;;;;;;4931596;29;20378;-82
2022/01/11 04:14:54;;;;;;;174.75;121.00;;;-0.90;99.90;;;;;;4929432;29;21009;-81
2022/01/11 04:17:20;;;;;;;178.87;121.07;;;-0.80;99.90;;;;;;4938166;29;20380;-82
2022/01/11 04:19:46;;;;;;;172.57;117.30;;;-0.80;99.90;;;;;;4949346;29;20387;-82
2022/01/11 04:22:11;;;;;;;190.37;130.33;;;-0.80;99.90;;;;;;4934376;29;20460;-82
2022/01/11 04:24:37;;;;;;;178.83;120.67;;;-0.90;99.90;;;;;;4931382;29;20393;-82
2022/01/11 04:27:03;;;;;;;187.17;128.73;;;-0.90;99.90;;;;;;4929986;29;20448;-81
2022/01/11 04:29:29;;;;;;;174.23;117.47;;;-0.90;99.90;;;;;;4929931;29;20420;-82
2022/01/11 04:31:54;;;;;;;176.47;114.37;;;-1.00;99.90;;;;;;4929882;29;20425;-83
2022/01/11 04:34:20;;;;;;;166.13;109.95;;;-0.90;99.90;;;;;;4945608;28;20408;-82
2022/01/11 04:36:46;;;;;;;172.75;110.35;;;-0.80;99.90;;;;;;4949512;29;20400;-82
2022/01/11 04:39:13;;;;;;;168.70;105.43;;;-0.80;99.90;;;;;;4950781;29;20843;-82
2022/01/11 04:41:39;;;;;;;166.20;105.78;;;-0.80;99.90;;;;;;4950650;28;20396;-81
2022/01/11 04:44:06;;;;;;;166.77;106.25;;;-0.90;99.90;;;;;;4950398;29;20388;-82
2022/01/11 04:46:31;;;;;;;165.98;105.78;;;-0.90;99.90;;;;;;4950519;28;20408;-81
2022/01/11 04:48:59;;;;;;;165.23;105.18;;;-0.90;99.90;;;;;;4950508;29;20412;-83
2022/01/11 04:51:25;;;;;;;167.82;108.38;;;-0.90;99.90;;;;;;4949455;28;20423;-82
2022/01/11 04:53:51;;;;;;;170.45;106.95;;;-0.90;99.90;;;;;;4953828;29;20392;-83
2022/01/11 04:56:17;;;;;;;166.30;104.70;;;-0.90;99.90;;;;;;4953661;28;20427;-83
2022/01/11 04:58:43;;;;;;;162.70;101.10;;;-1.00;99.90;;;;;;4952892;29;20449;-83
2022/01/11 05:01:09;;;;;;;169.37;105.53;;;-0.90;99.90;;;;;;4954133;29;20937;-81
2022/01/11 05:03:35;;;;;;;163.00;101.18;;;-0.80;99.90;;;;;;4952499;29;20392;-83
2022/01/11 05:06:01;;;;;;;168.32;100.88;;;-0.90;99.90;;;;;;4953582;29;20423;-83
2022/01/11 05:08:27;;;;;;;163.05;97.18;;;-0.80;99.90;;;;;;4951967;28;20833;-84
2022/01/11 05:10:52;;;;;;;167.80;96.75;;;-0.80;99.90;;;;;;4938072;29;20446;-82
2022/01/11 05:13:20;;;;;;;168.45;97.90;;;-0.90;99.90;;;;;;4932913;29;20378;-83
2022/01/11 05:15:47;;;;;;;169.75;98.57;;;-0.90;99.90;;;;;;4933043;29;20923;-83
2022/01/11 05:18:13;;;;;;;163.00;96.20;;;-0.90;99.90;;;;;;4933924;28;20383;-83
2022/01/11 05:20:39;;;;;;;165.68;97.07;;;-0.80;99.90;;;;;;4934111;29;21402;-81
2022/01/11 05:23:06;;;;;;;162.27;94.85;;;-0.80;99.90;;;;;;4933529;29;20398;-83
2022/01/11 05:25:32;;;;;;;167.63;95.55;;;-0.80;99.90;;;;;;4934720;29;20481;-83
2022/01/11 05:28:01;;;;;;;159.05;94.07;;;-0.80;99.90;;;;;;4933869;29;20397;-83
2022/01/11 05:30:28;;;;;;;163.43;95.53;;;-0.60;99.90;;;;;;4950413;28;20422;-82
2022/01/11 05:32:54;;;;;;;159.85;92.25;;;-0.70;99.90;;;;;;4953237;29;20415;-82
2022/01/11 05:35:21;;;;;;;152.48;87.35;;;-0.60;99.90;;;;;;4949998;29;20380;-82
2022/01/11 05:37:48;;;;;;;153.18;86.13;;;-0.70;99.90;;;;;;4949042;29;20401;-82
2022/01/11 05:40:15;;;;;;;147.18;84.40;;;-0.80;99.90;;;;;;4933989;29;20386;-81
2022/01/11 05:42:42;;;;;;;148.27;83.63;;;-0.90;99.90;;;;;;4933805;28;20497;-83
2022/01/11 05:45:09;;;;;;;150.73;84.10;;;-1.00;99.90;;;;;;4934130;29;21053;-82
2022/01/11 05:47:35;;;;;;;153.30;84.63;;;-1.00;99.90;;;;;;4931389;29;20780;-83
2022/01/11 05:50:03;;;;;;;152.85;85.10;;;-1.00;99.90;;;;;;4928884;29;20419;-82
2022/01/11 05:52:29;;;;;;;158.40;85.88;;;-1.00;99.90;;;;;;4913387;29;20391;-82
2022/01/11 05:54:55;;;;;;;158.15;86.72;;;-1.00;99.90;;;;;;4913160;29;20482;-82
2022/01/11 05:57:21;;;;;;;153.48;86.85;;;-1.00;99.90;;;;;;4914414;29;20396;-82
2022/01/11 05:59:46;;;;;;;157.38;87.45;;;-1.10;99.90;;;;;;4921871;29;20420;-83
2022/01/11 06:02:12;;;;;;;162.77;88.07;;;-1.00;99.90;;;;;;4933310;29;20460;-83
2022/01/11 06:04:38;;;;;;;152.82;86.20;;;-1.00;99.90;;;;;;4927637;29;20822;-82
2022/01/11 06:07:04;;;;;;;149.20;84.87;;;-1.00;99.90;;;;;;4923823;29;20406;-83
2022/01/11 06:09:29;;;;;;;159.60;87.93;;;-1.00;99.90;;;;;;4961975;28;20442;-83
2022/01/11 06:11:56;;;;;;;161.20;86.57;;;-1.00;99.90;;;;;;4950510;29;20446;-83
2022/01/11 06:14:22;;;;;;;156.27;85.93;;;-1.00;99.90;;;;;;4932171;29;20911;-83
2022/01/11 06:16:48;;;;;;;154.30;86.37;;;-0.80;99.90;;;;;;4931608;28;20475;-83
2022/01/11 06:19:14;;;;;;;156.23;85.75;;;-0.90;99.90;;;;;;4932154;29;20492;-82
2022/01/11 06:21:41;;;;;;;151.32;85.75;;;-0.90;99.90;;;;;;4931615;29;20401;-82
2022/01/11 06:24:07;;;;;;;145.20;82.47;;;-0.90;99.90;;;;;;4931419;29;20408;-82
2022/01/11 06:26:33;;;;;;;151.13;83.00;;;-0.80;99.90;;;;;;4931502;29;20524;-83
2022/01/11 06:29:01;;;;;;;149.00;83.28;;;-0.70;99.90;;;;;;4927743;29;20430;-82
2022/01/11 06:31:27;;;;;;;147.40;83.57;;;-0.60;99.90;;;;;;4913927;29;20428;-82
2022/01/11 06:33:53;;;;;;;145.57;83.28;;;-0.70;99.90;;;;;;4913002;29;20392;-83
2022/01/11 06:36:19;;;;;;;149.45;84.03;;;-0.70;99.90;;;;;;4913111;29;20392;-82
2022/01/11 06:38:45;;;;;;;150.63;84.65;;;-0.60;99.90;;;;;;4928868;29;20909;-83
2022/01/11 06:41:12;;;;;;;155.60;87.57;;;-0.60;99.90;;;;;;4912477;29;20416;-83
2022/01/11 06:43:38;;;;;;;149.30;84.88;;;-0.60;99.90;;;;;;4912791;29;20390;-83
2022/01/11 06:46:05;;;;;;;150.52;85.35;;;-0.60;99.90;;;;;;4913604;29;20476;-82
2022/01/11 06:48:32;;;;;;;155.93;86.57;;;-0.60;99.90;;;;;;4912514;29;20391;-83
2022/01/11 06:50:57;;;;;;;157.50;86.80;;;-0.50;99.90;;;;;;4912944;29;20414;-83
2022/01/11 06:53:23;;;;;;;152.37;85.47;;;-0.60;99.90;;;;;;4912476;29;20430;-82
2022/01/11 06:55:50;;;;;;;156.30;88.57;;;-0.60;99.90;;;;;;4912519;29;20455;-83
2022/01/11 06:58:16;;;;;;;157.65;88.25;;;-0.60;99.90;;;;;;4912553;29;20391;-82
2022/01/11 07:00:43;;;;;;;159.23;87.82;;;-0.70;99.90;;;;;;4912479;29;20396;-83
2022/01/11 07:03:08;;;;;;;158.68;87.20;;;-0.70;99.90;;;;;;4913512;29;20411;-83
2022/01/11 07:05:34;;;;;;;151.23;86.30;;;-0.60;99.90;;;;;;4912381;29;20408;-83
2022/01/11 07:08:00;;;;;;;152.50;88.35;;;-0.50;99.90;;;;;;4913315;29;20387;-82
2022/01/11 07:10:25;;;;;;;158.00;86.07;;;-0.60;99.90;;;;;;4913427;29;20418;-83
2022/01/11 07:12:52;;;;;;;148.97;82.77;;;-0.60;99.90;;;;;;4913191;29;20410;-82
2022/01/11 07:15:18;;;;;;;147.75;84.10;;;-0.60;99.90;;;;;;4912962;29;20937;-83
2022/01/11 07:17:44;;;;;;;148.48;86.20;;;-0.60;99.90;;;;;;4912962;29;20632;-83
2022/01/11 07:20:10;;;;;;;147.00;83.03;;;-0.60;99.90;;;;;;4911905;29;20416;-83
2022/01/11 07:22:37;;;;;;;140.95;81.10;;;-0.50;99.90;;;;;;4927669;29;20392;-82
2022/01/11 07:25:05;;;;;;;144.00;81.60;;;-0.60;99.90;;;;;;4913005;29;20516;-82
2022/01/11 07:27:33;;;;;;;145.07;82.87;;;-0.50;99.90;;;;;;4911686;29;20410;-82
2022/01/11 07:29:59;;;;;;;144.40;80.97;;;-0.60;99.90;;;;;;4912946;29;20423;-84
2022/01/11 07:32:25;;;;;;;144.87;83.10;;;-0.50;99.90;;;;;;4913297;29;20383;-84
2022/01/11 07:34:51;;;;;;;139.52;80.28;;;-0.50;99.90;;;;;;4913049;29;20387;-82
2022/01/11 07:37:17;;;;;;;141.10;80.90;;;-0.40;99.90;;;;;;4926975;29;20471;-82
2022/01/11 07:39:42;;;;;;;142.68;80.60;;;-0.40;99.90;;;;;;4912203;29;20399;-84
2022/01/11 07:42:08;;;;;;;140.07;80.03;;;-0.30;99.90;;;;;;4911407;29;20483;-85
2022/01/11 07:44:34;;;;;;;140.48;78.80;;;-0.50;99.90;;;;;;4911959;29;20438;-84
2022/01/11 07:47:02;;;;;;;143.40;80.43;;;-0.60;99.90;;;;;;4913067;29;20991;-81
2022/01/11 07:49:28;;;;;;;146.18;80.47;;;-0.70;99.90;;;;;;4912866;29;20423;-81
2022/01/11 07:51:54;;;;;;;141.63;80.43;;;-0.80;99.90;;;;;;4913146;29;20460;-83
2022/01/11 07:54:22;;;;;;;146.43;82.57;;;-0.70;99.90;;;;;;4911099;29;20431;-83
2022/01/11 07:56:47;;;;;;;140.33;79.67;;;-0.80;99.90;;;;;;4912759;29;21009;-82
2022/01/11 07:59:13;;;;;;;143.03;79.70;;;-0.70;99.90;;;;;;4911386;29;20529;-83
2022/01/11 08:01:39;;;;;;;135.60;77.95;;;-0.60;99.90;;;;;;4911580;29;20395;-83
2022/01/11 08:04:05;;;;;;;135.93;76.87;;;-0.60;99.90;;;;;;4913197;29;20488;-83
2022/01/11 08:06:32;;;;;;;129.23;75.40;;;-0.50;99.90;;;;;;4913061;29;20395;-83
2022/01/11 08:08:59;;;;;;;131.38;74.93;;;-0.40;99.90;;;;;;4913353;29;20420;-83
2022/01/11 08:11:24;;;;;;;128.38;75.35;;;-0.30;99.90;;;;;;4916895;29;20445;-83
2022/01/11 08:13:50;;;;;;;127.03;74.15;;;-0.30;99.90;;;;;;4940048;29;20788;-84
2022/01/11 08:16:16;;;;;;;130.25;75.53;;;-0.30;99.90;;;;;;4950572;28;20396;-82
2022/01/11 08:18:41;;;;;;;124.07;73.47;;;-0.20;99.90;;;;;;4934616;29;20378;-83
2022/01/11 08:21:07;;;;;;;119.60;71.00;;;-0.20;99.90;;;;;;4930149;29;20417;-83
2022/01/11 08:23:33;;;;;;;113.17;68.40;;;-0.10;99.90;;;;;;4930096;29;20492;-83
2022/01/11 08:26:00;;;;;;;107.73;64.93;;;0.00;99.90;;;;;;4926573;29;20398;-82
2022/01/11 08:28:26;;;;;;;114.07;66.65;;;0.00;99.90;;;;;;4933925;29;20386;-83
2022/01/11 08:30:52;;;;;;;106.78;65.10;;;0.10;99.90;;;;;;4939289;29;20392;-82
2022/01/11 08:33:18;;;;;;;110.13;66.83;;;0.10;99.90;;;;;;4934230;29;20382;-83
2022/01/11 08:35:44;;;;;;;107.57;65.53;;;0.20;99.90;;;;;;4941042;29;20416;-82
2022/01/11 08:38:10;;;;;;;107.37;64.77;;;0.00;99.90;;;;;;4953620;29;20493;-82
2022/01/11 08:40:36;;;;;;;102.45;63.90;;;-0.10;99.90;;;;;;4940123;29;20467;-82
2022/01/11 08:43:03;;;;;;;112.03;65.63;;;-0.10;99.90;;;;;;4934528;29;20440;-82
2022/01/11 08:45:30;;;;;;;107.80;65.70;;;-0.20;99.90;;;;;;4933749;29;20402;-83
2022/01/11 08:47:55;;;;;;;105.93;65.90;;;-0.10;99.90;;;;;;4932924;29;20398;-82
2022/01/11 08:50:21;;;;;;;99.97;62.55;;;0.00;99.90;;;;;;4933757;29;20472;-83
2022/01/11 08:52:47;;;;;;;95.90;59.30;;;0.00;99.90;;;;;;4934822;29;20864;-83
2022/01/11 08:55:13;;;;;;;84.53;51.67;;;0.10;99.90;;;;;;4948349;29;20409;-82
2022/01/11 08:57:39;;;;;;;71.90;47.78;;;0.10;99.90;;;;;;4941639;29;20410;-82
2022/01/11 09:00:10;;;;;;;65.05;44.10;;;0.10;99.90;;;;;;4941473;28;20390;-81
2022/01/11 09:02:37;;;;;;;64.25;43.15;;;0.20;99.90;;;;;;4914607;29;20469;-82
2022/01/11 09:05:03;;;;;;;53.53;36.97;;;0.20;99.90;;;;;;4929724;29;21019;-82
2022/01/11 09:07:29;;;;;;;53.38;36.38;;;0.20;99.90;;;;;;4914740;29;20435;-82
2022/01/11 09:09:56;;;;;;;53.13;35.70;;;0.20;99.90;;;;;;4929776;29;20499;-82
2022/01/11 09:12:22;;;;;;;49.20;34.33;;;0.10;99.90;;;;;;4929842;29;20408;-82
2022/01/11 09:14:48;;;;;;;59.77;39.67;;;0.20;99.90;;;;;;4952229;29;20384;-82
2022/01/11 09:17:14;;;;;;;59.45;40.55;;;0.30;99.90;;;;;;4953260;28;21576;-82
2022/01/11 09:19:40;;;;;;;63.67;43.22;;;0.40;99.90;;;;;;4953217;29;21205;-83
2022/01/11 09:22:07;;;;;;;62.17;42.72;;;0.40;99.90;;;;;;4951497;28;20987;-82
2022/01/11 09:24:34;;;;;;;61.63;43.25;;;0.50;99.90;;;;;;4953231;29;20388;-82
2022/01/11 09:27:03;;;;;;;67.28;46.35;;;0.50;99.90;;;;;;4951813;29;20806;-81
2022/01/11 09:29:29;;;;;;;77.23;51.17;;;0.50;99.90;;;;;;4942553;29;20425;-82
2022/01/11 09:31:57;;;;;;;75.82;51.28;;;0.50;99.90;;;;;;4948651;29;20386;-83
2022/01/11 09:34:23;;;;;;;78.50;52.08;;;0.50;99.90;;;;;;4933783;28;20410;-83
2022/01/11 09:36:49;;;;;;;76.30;51.63;;;0.50;99.90;;;;;;4933892;29;20397;-82
2022/01/11 09:39:15;;;;;;;76.18;51.28;;;0.60;99.90;;;;;;4927939;29;20406;-83
2022/01/11 09:41:41;;;;;;;71.07;49.58;;;0.50;99.90;;;;;;4914359;29;20376;-82
2022/01/11 09:44:07;;;;;;;76.43;53.05;;;0.60;99.90;;;;;;4913751;29;20483;-81
2022/01/11 09:46:34;;;;;;;77.90;53.25;;;0.60;99.90;;;;;;4916414;29;20403;-82
2022/01/11 09:49:00;;;;;;;74.70;51.22;;;0.60;99.90;;;;;;4933646;29;20957;-83
2022/01/11 09:51:25;;;;;;;75.10;51.95;;;0.60;99.90;;;;;;4932031;29;20386;-82
2022/01/11 09:53:51;;;;;;;79.03;53.75;;;0.50;99.90;;;;;;4930948;29;20490;-81
2022/01/11 09:56:17;;;;;;;82.50;54.67;;;0.50;99.90;;;;;;4928729;29;20454;-83
2022/01/11 09:58:45;;;;;;;79.88;54.42;;;0.40;99.90;;;;;;4928994;29;21024;-84
2022/01/11 10:01:10;;;;;;;78.00;53.47;;;0.30;99.90;;;;;;4926790;29;20494;-81
2022/01/11 10:03:54;;;;;;;72.30;50.97;;;0.40;99.90;;;;;;4932242;29;20437;-83
2022/01/11 10:06:21;;;;;;;78.47;52.72;;;0.40;99.90;;;;;;4932310;29;20453;-82
2022/01/11 10:08:47;;;;;;;78.63;55.05;;;0.50;99.90;;;;;;4928572;29;20526;-83
2022/01/11 10:11:13;;;;;;;78.07;53.92;;;0.70;99.90;;;;;;4913217;29;20483;-83
2022/01/11 10:13:40;;;;;;;80.20;54.83;;;0.70;99.90;;;;;;4912897;29;20466;-82
2022/01/11 10:16:24;;;;;;;72.63;50.75;;;0.70;99.90;;;;;;4914694;29;20398;-82
2022/01/11 10:18:52;;;;;;;71.55;51.30;;;0.70;99.90;;;;;;4929249;29;20409;-82
2022/01/11 10:21:33;;;;;;;69.10;49.33;;;0.60;99.90;;;;;;4925526;29;21083;-81
2022/01/11 10:24:19;;;;;;;69.80;51.17;;;0.60;99.90;;;;;;4928743;29;20833;-82
2022/01/11 10:26:45;;;;;;;71.85;50.13;;;0.50;99.90;;;;;;4932599;29;20394;-83
2022/01/11 10:29:33;;;;;;;69.60;50.55;;;0.60;99.90;;;;;;4930340;29;20427;-82
2022/01/11 10:32:09;;;;;;;70.07;51.45;;;0.60;99.90;;;;;;4931452;29;20497;-82
2022/01/11 10:34:35;;;;;;;73.93;52.10;;;0.60;99.90;;;;;;4931469;29;20398;-82
2022/01/11 10:37:04;;;;;;;70.72;50.33;;;0.50;99.90;;;;;;4930715;29;20923;-83
2022/01/11 10:39:35;;;;;;;71.13;50.92;;;0.50;99.90;;;;;;4931724;29;20394;-82
2022/01/11 10:42:02;;;;;;;69.82;49.88;;;0.50;99.90;;;;;;4932746;28;20525;-82
2022/01/11 10:44:53;;;;;;;67.70;49.15;;;0.40;99.90;;;;;;4932927;29;20386;-82
2022/01/11 10:47:24;;;;;;;70.10;50.38;;;0.40;99.90;;;;;;4925938;29;20401;-81
2022/01/11 10:49:52;;;;;;;67.22;48.15;;;0.50;99.90;;;;;;4932273;29;20410;-81
2022/01/11 10:52:21;;;;;;;70.07;50.38;;;0.50;99.90;;;;;;4932702;29;20398;-82
2022/01/11 10:54:47;;;;;;;71.93;51.83;;;0.50;99.90;;;;;;4930928;29;20410;-82
2022/01/11 10:57:28;;;;;;;74.30;51.95;;;0.30;99.90;;;;;;4931781;29;20401;-81
2022/01/11 11:00:13;;;;;;;75.07;50.97;;;0.30;99.90;;;;;;4932659;29;20401;-81
2022/01/11 11:02:40;;;;;;;71.80;51.30;;;0.30;99.90;;;;;;4933627;29;20911;-82
2022/01/11 11:05:23;;;;;;;70.10;50.95;;;0.40;99.90;;;;;;4946946;29;20402;-82
2022/01/11 11:07:59;;;;;;;70.60;51.78;;;0.50;99.90;;;;;;4927070;29;20426;-82
2022/01/11 11:10:35;;;;;;;70.72;51.28;;;0.50;99.90;;;;;;4923784;29;20497;-82
2022/01/11 11:13:01;;;;;;;69.88;50.50;;;0.40;99.90;;;;;;4926983;29;20602;-82
2022/01/11 11:15:29;;;;;;;72.72;51.45;;;0.50;99.90;;;;;;4912370;29;20384;-83
2022/01/11 11:17:54;;;;;;;72.83;52.43;;;0.60;99.90;;;;;;4913245;29;20399;-84
2022/01/11 11:20:20;;;;;;;69.60;50.63;;;0.60;99.90;;;;;;4911951;29;20414;-82
2022/01/11 11:22:46;;;;;;;69.77;50.70;;;0.60;99.90;;;;;;4919087;29;20389;-82
2022/01/11 11:25:11;;;;;;;69.80;49.67;;;0.70;99.90;;;;;;4931098;29;20428;-83
2022/01/11 11:27:37;;;;;;;67.17;48.30;;;0.90;99.90;;;;;;4920602;29;20393;-81
2022/01/11 11:30:03;;;;;;;65.22;47.88;;;0.90;99.90;;;;;;4949121;29;20427;-82
2022/01/11 11:32:31;;;;;;;65.35;47.13;;;0.90;99.90;;;;;;4938744;29;20883;-82
2022/01/11 11:34:57;;;;;;;63.72;47.70;;;0.90;99.90;;;;;;4956032;29;20401;-82
2022/01/11 11:37:34;;;;;;;61.92;45.92;;;1.00;99.90;;;;;;4951795;29;20398;-84
2022/01/11 11:40:04;;;;;;;64.20;47.35;;;1.00;99.90;;;;;;4944429;29;20401;-83
2022/01/11 11:42:31;;;;;;;64.03;46.92;;;1.00;99.90;;;;;;4938808;29;20433;-81
2022/01/11 11:44:58;;;;;;;63.08;48.05;;;1.10;99.90;;;;;;4932092;29;20381;-83
2022/01/11 11:47:34;;;;;;;63.22;49.08;;;1.10;99.90;;;;;;4929119;29;20445;-83
2022/01/11 11:50:03;;;;;;;66.28;48.58;;;1.00;99.90;;;;;;4930581;29;20418;-83
2022/01/11 11:52:42;;;;;;;64.68;48.55;;;0.80;99.90;;;;;;4939056;29;20423;-83
2022/01/11 11:55:30;;;;;;;62.80;47.60;;;0.80;99.90;;;;;;4950141;29;20934;-83
2022/01/11 11:58:08;;;;;;;62.13;46.10;;;0.80;99.90;;;;;;4949565;29;20392;-83
2022/01/11 12:00:43;;;;;;;65.07;47.40;;;1.00;99.90;;;;;;4939880;28;20401;-83
2022/01/11 12:03:25;;;;;;;60.92;45.55;;;0.90;99.90;;;;;;4926766;29;20509;-83
2022/01/11 12:05:55;;;;;;;59.87;45.63;;;1.00;99.90;;;;;;4934517;29;21007;-83
2022/01/11 12:08:24;;;;;;;59.17;45.20;;;1.00;99.90;;;;;;4935469;29;20398;-83
2022/01/11 12:10:52;;;;;;;60.72;45.88;;;1.00;99.90;;;;;;4933661;29;20422;-83
2022/01/11 12:13:52;;;;;;;60.60;45.95;;;1.10;99.90;;;;;;4947720;28;20421;-82
2022/01/11 12:16:39;;;;;;;58.60;45.28;;;1.10;99.90;;;;;;4915101;29;20450;-82
2022/01/11 12:19:14;;;;;;;58.03;44.83;;;1.20;99.90;;;;;;4948255;29;20570;-83
2022/01/11 12:21:58;;;;;;;58.17;44.38;;;1.30;99.90;;;;;;4954297;29;20966;-82